Time;durP1;ratioP1;P1;durP2;ratioP2;P2;SDS_P1;SDS_P2;PMS_P1;PMS_P2;Temp;Humidity;BMP_temperature;BMP_pressure;BME280_temperature;BME280_humidity;BME280_pressure;Samples;Min_cycle;Max_cycle;Signal;HPM_P1;HPM_P2
2022/06/06 00:02:18;;;;;;;2.07;1.70;;;16.40;99.90;;;;;;5053925;28;20197;-76
2022/06/06 00:04:43;;;;;;;2.13;1.60;;;16.40;99.90;;;;;;5037641;28;20170;-76
2022/06/06 00:07:09;;;;;;;2.10;1.67;;;16.40;99.90;;;;;;5053603;28;20673;-76
2022/06/06 00:09:35;;;;;;;1.80;1.70;;;16.30;99.90;;;;;;5037382;28;20166;-76
2022/06/06 00:12:03;;;;;;;2.00;1.80;;;16.30;99.90;;;;;;5053765;28;20174;-76
2022/06/06 00:14:29;;;;;;;2.67;1.90;;;16.30;99.90;;;;;;5053818;28;20166;-76
2022/06/06 00:16:54;;;;;;;3.83;2.00;;;16.20;99.90;;;;;;5053702;28;20343;-76
2022/06/06 00:19:20;;;;;;;2.20;1.90;;;16.10;99.90;;;;;;5053829;28;20185;-76
2022/06/06 00:21:47;;;;;;;3.00;2.00;;;16.10;99.90;;;;;;5053382;28;20694;-76
2022/06/06 00:24:13;;;;;;;3.03;2.00;;;16.10;99.90;;;;;;5053706;28;20300;-76
2022/06/06 00:26:39;;;;;;;2.20;1.90;;;16.10;99.90;;;;;;5053605;28;20285;-76
2022/06/06 00:29:06;;;;;;;2.00;1.90;;;16.20;99.90;;;;;;5053570;28;20663;-76
2022/06/06 00:37:05;;;;;;;2.10;1.97;;;16.10;99.90;;;;;;5054870;28;20683;-76
2022/06/06 00:39:30;;;;;;;2.70;2.00;;;16.00;99.90;;;;;;5053495;28;20174;-76
2022/06/06 00:41:56;;;;;;;2.10;1.90;;;16.00;99.90;;;;;;5036434;28;20549;-76
2022/06/06 00:44:27;;;;;;;2.83;2.00;;;16.00;99.90;;;;;;5036792;28;20181;-76
2022/06/06 00:47:25;;;;;;;2.43;1.93;;;16.10;99.90;;;;;;5053013;28;20232;-76
2022/06/06 00:50:03;;;;;;;2.40;2.13;;;16.10;99.90;;;;;;5054439;28;20280;-76
2022/06/06 00:52:33;;;;;;;2.63;2.20;;;16.10;99.90;;;;;;5052803;28;20252;-76
2022/06/06 00:55:03;;;;;;;2.63;2.00;;;16.20;99.90;;;;;;5053190;28;20636;-76
2022/06/06 00:57:32;;;;;;;3.03;2.27;;;16.10;99.90;;;;;;5036581;28;20193;-76
2022/06/06 01:00:01;;;;;;;3.57;2.13;;;16.10;99.90;;;;;;5051817;28;20169;-76
2022/06/06 01:02:27;;;;;;;2.23;2.03;;;16.10;99.90;;;;;;5052980;28;20174;-76
2022/06/06 01:04:54;;;;;;;2.23;2.03;;;16.10;99.90;;;;;;5052867;28;20208;-76
2022/06/06 01:07:20;;;;;;;3.00;2.20;;;16.00;99.90;;;;;;5053606;28;20206;-76
2022/06/06 01:09:46;;;;;;;3.10;2.13;;;16.00;99.90;;;;;;5036045;28;20767;-76
2022/06/06 01:12:16;;;;;;;3.80;2.20;;;16.00;99.90;;;;;;5035817;28;20174;-76
2022/06/06 01:14:54;;;;;;;2.80;2.10;;;16.00;99.90;;;;;;5035992;28;20193;-76
2022/06/06 01:17:35;;;;;;;2.33;2.13;;;16.00;99.90;;;;;;5052540;28;20204;-76
2022/06/06 01:20:46;;;;;;;3.17;2.27;;;16.00;99.90;;;;;;5069159;28;20276;-76
2022/06/06 01:23:24;;;;;;;4.23;2.47;;;16.00;99.90;;;;;;5042175;28;20644;-76
2022/06/06 01:26:09;;;;;;;2.80;2.60;;;16.00;99.90;;;;;;5052419;28;20177;-76
2022/06/06 01:28:46;;;;;;;2.60;2.40;;;16.00;99.90;;;;;;5069094;28;20280;-76
2022/06/06 01:31:44;;;;;;;2.67;2.40;;;16.00;99.90;;;;;;5069129;28;20177;-76
2022/06/06 01:34:12;;;;;;;2.50;2.30;;;16.10;99.90;;;;;;5052398;28;20173;-76
2022/06/06 01:36:40;;;;;;;3.33;2.70;;;16.10;99.90;;;;;;5053202;28;20201;-76
2022/06/06 01:39:14;;;;;;;2.83;2.63;;;16.10;99.90;;;;;;5052259;28;20667;-76
2022/06/06 01:41:51;;;;;;;2.67;2.47;;;16.10;99.90;;;;;;5035505;28;20180;-76
2022/06/06 01:44:29;;;;;;;3.13;2.67;;;16.10;99.90;;;;;;5068858;28;20173;-76
2022/06/06 01:46:57;;;;;;;3.43;2.60;;;16.10;99.90;;;;;;5051927;28;20684;-76
2022/06/06 01:49:24;;;;;;;2.60;2.40;;;16.10;99.90;;;;;;5035266;28;20637;-76
2022/06/06 01:52:04;;;;;;;3.13;2.83;;;16.10;99.90;;;;;;5052986;28;20254;-76
2022/06/06 01:54:30;;;;;;;2.77;2.57;;;16.10;99.90;;;;;;5053132;28;20162;-76
2022/06/06 01:56:56;;;;;;;3.23;2.93;;;16.00;99.90;;;;;;5052944;28;20204;-76
2022/06/06 01:59:22;;;;;;;4.43;3.17;;;16.00;99.90;;;;;;5035413;28;20200;-76
2022/06/06 02:01:48;;;;;;;5.43;3.03;;;16.00;99.90;;;;;;5051809;28;20609;-76
2022/06/06 02:04:13;;;;;;;4.03;2.90;;;16.00;99.90;;;;;;5035231;28;20231;-76
2022/06/06 02:09:08;;;;;;;3.27;2.97;;;16.00;99.90;;;;;;5031461;28;20610;-74
2022/06/06 02:11:34;;;;;;;4.03;3.30;;;16.00;99.90;;;;;;5032626;28;20167;-74
2022/06/06 02:14:00;;;;;;;3.70;3.40;;;16.00;99.90;;;;;;5031567;28;20177;-74
2022/06/06 02:16:25;;;;;;;3.70;3.40;;;16.00;99.90;;;;;;5015108;28;20197;-74
2022/06/06 02:18:51;;;;;;;4.13;3.40;;;16.00;99.90;;;;;;5031461;28;20198;-75
2022/06/06 02:21:16;;;;;;;3.30;3.00;;;16.00;99.90;;;;;;5015192;28;20189;-75
2022/06/06 02:23:43;;;;;;;4.10;3.40;;;16.10;99.90;;;;;;5031276;28;20217;-75
2022/06/06 02:26:09;;;;;;;5.33;3.20;;;16.10;99.90;;;;;;5014959;28;20210;-75
2022/06/06 02:28:36;;;;;;;3.77;3.40;;;16.10;99.90;;;;;;5031430;28;20571;-75
2022/06/06 02:31:03;;;;;;;4.07;3.17;;;16.10;99.90;;;;;;5031352;28;20315;-75
2022/06/06 02:33:28;;;;;;;3.50;3.20;;;16.10;99.90;;;;;;5031025;28;20228;-75
2022/06/06 02:35:54;;;;;;;3.67;3.33;;;16.10;99.90;;;;;;5014804;28;20183;-75
2022/06/06 02:38:20;;;;;;;4.53;3.40;;;16.10;99.90;;;;;;5032481;28;20699;-75
2022/06/06 02:40:46;;;;;;;4.40;3.47;;;16.20;99.90;;;;;;5031238;28;20667;-75
2022/06/06 02:43:13;;;;;;;4.40;3.67;;;16.20;99.90;;;;;;5014481;28;20182;-75
2022/06/06 02:45:40;;;;;;;3.60;3.30;;;16.20;99.90;;;;;;5031093;28;20186;-75
2022/06/06 02:48:06;;;;;;;3.67;3.37;;;16.10;99.90;;;;;;5014873;28;20213;-75
2022/06/06 02:50:32;;;;;;;5.00;3.73;;;16.20;99.90;;;;;;5014663;28;20700;-75
2022/06/06 02:52:59;;;;;;;4.37;3.73;;;16.10;99.90;;;;;;5014453;28;20174;-75
2022/06/06 02:55:25;;;;;;;4.23;3.70;;;16.10;99.90;;;;;;5014556;28;20178;-75
2022/06/06 02:57:52;;;;;;;4.60;3.67;;;16.10;99.90;;;;;;5030862;28;20226;-75
2022/06/06 03:00:24;;;;;;;3.97;3.57;;;16.00;99.90;;;;;;5014762;28;20194;-75
2022/06/06 03:02:50;;;;;;;5.13;3.67;;;16.00;99.90;;;;;;5031039;28;20265;-75
2022/06/06 03:05:17;;;;;;;4.37;3.97;;;16.00;99.90;;;;;;5030858;28;20178;-75
2022/06/06 03:08:02;;;;;;;5.30;4.40;;;16.00;99.90;;;;;;5014424;28;20249;-75
2022/06/06 03:10:40;;;;;;;5.43;4.40;;;16.00;99.90;;;;;;5030844;28;20198;-75
2022/06/06 03:13:42;;;;;;;5.23;4.43;;;16.00;99.90;;;;;;5029857;28;20213;-75
2022/06/06 03:22:28;;;;;;;6.17;4.13;;;16.00;99.90;;;;;;5011958;28;20178;-75
2022/06/06 03:25:12;;;;;;;4.93;4.43;;;16.00;99.90;;;;;;5014949;28;20278;-75
2022/06/06 03:28:03;;;;;;;4.83;4.33;;;16.00;99.90;;;;;;5014660;28;20207;-75
2022/06/06 03:31:14;;;;;;;5.50;4.47;;;16.00;99.90;;;;;;5015000;28;20171;-75
2022/06/06 03:34:00;;;;;;;6.70;4.93;;;16.10;99.90;;;;;;5003539;28;20213;-75
2022/06/06 03:36:38;;;;;;;5.80;4.50;;;16.10;99.90;;;;;;5014777;28;20182;-75
2022/06/06 03:39:13;;;;;;;5.43;4.80;;;16.10;99.90;;;;;;5014636;28;20713;-75
2022/06/06 03:41:47;;;;;;;4.87;4.47;;;16.10;99.90;;;;;;5015913;28;20165;-75
2022/06/06 03:44:47;;;;;;;4.83;4.30;;;16.20;99.90;;;;;;5014652;28;20174;-75
2022/06/06 03:47:22;;;;;;;7.60;4.83;;;16.20;99.90;;;;;;5014520;28;20210;-75
2022/06/06 03:50:12;;;;;;;6.03;4.57;;;16.20;99.90;;;;;;5015922;28;20282;-75
2022/06/06 03:52:47;;;;;;;5.33;4.83;;;16.10;99.90;;;;;;5014470;28;20650;-75
2022/06/06 03:55:25;;;;;;;5.70;4.70;;;16.20;99.90;;;;;;5014614;28;20202;-75
2022/06/06 03:57:54;;;;;;;6.73;4.17;;;16.20;99.90;;;;;;5014464;28;20199;-75
2022/06/06 04:00:21;;;;;;;7.00;4.97;;;16.20;99.90;;;;;;5014304;28;20245;-75
2022/06/06 04:02:48;;;;;;;5.97;4.80;;;16.30;99.90;;;;;;5014174;28;20293;-75
2022/06/06 04:05:20;;;;;;;5.20;4.70;;;16.30;99.90;;;;;;4998275;28;20187;-75
2022/06/06 04:07:46;;;;;;;4.97;4.30;;;16.30;99.90;;;;;;5013974;28;20302;-75
2022/06/06 04:10:13;;;;;;;5.60;4.70;;;16.30;99.90;;;;;;5014284;28;20262;-75
2022/06/06 04:13:13;;;;;;;5.47;4.97;;;16.30;99.90;;;;;;5014018;28;20243;-75
2022/06/06 04:16:27;;;;;;;5.07;4.50;;;16.30;99.90;;;;;;5014201;28;20167;-75
2022/06/06 04:19:00;;;;;;;7.23;4.70;;;16.30;99.90;;;;;;4991401;28;20211;-75
2022/06/06 04:21:53;;;;;;;5.13;4.63;;;16.30;99.90;;;;;;5015640;28;20206;-75
2022/06/06 04:24:31;;;;;;;6.53;5.03;;;16.30;99.90;;;;;;5013999;28;20181;-75
2022/06/06 04:27:05;;;;;;;5.80;4.80;;;16.30;99.90;;;;;;5013877;28;20755;-75
2022/06/06 04:30:10;;;;;;;6.40;5.23;;;16.30;99.90;;;;;;5013790;28;20171;-75
2022/06/06 04:33:11;;;;;;;5.43;4.93;;;16.30;99.90;;;;;;4993166;28;20183;-75
2022/06/06 04:36:03;;;;;;;6.87;4.50;;;16.30;99.90;;;;;;4992867;28;20191;-75
2022/06/06 04:38:59;;;;;;;5.47;4.90;;;16.30;99.90;;;;;;5014215;28;20214;-75
2022/06/06 04:41:43;;;;;;;6.00;4.90;;;16.30;99.90;;;;;;5011314;28;20186;-75
2022/06/06 04:44:22;;;;;;;5.83;5.13;;;16.30;99.90;;;;;;5013484;28;20237;-75
2022/06/06 04:46:59;;;;;;;7.43;5.20;;;16.40;99.90;;;;;;5013447;28;20245;-75
2022/06/06 04:49:28;;;;;;;5.87;5.27;;;16.40;99.90;;;;;;5013667;28;20171;-75
2022/06/06 04:51:56;;;;;;;8.23;5.20;;;16.40;99.90;;;;;;4996851;28;20194;-75
2022/06/06 04:54:24;;;;;;;5.93;5.20;;;16.40;99.90;;;;;;5014588;28;20217;-75
2022/06/06 04:56:51;;;;;;;5.47;4.37;;;16.40;99.90;;;;;;5013102;28;20175;-75
2022/06/06 04:59:18;;;;;;;5.67;5.03;;;16.30;99.90;;;;;;4997023;28;20179;-75
2022/06/06 05:01:44;;;;;;;6.13;5.07;;;16.30;99.90;;;;;;4996847;28;20175;-75
2022/06/06 05:04:09;;;;;;;5.20;4.70;;;16.30;99.90;;;;;;4997058;28;20661;-75
2022/06/06 05:07:07;;;;;;;5.07;4.53;;;16.40;99.90;;;;;;5013023;28;20195;-73
2022/06/06 05:09:53;;;;;;;6.67;4.70;;;16.50;99.90;;;;;;5014330;28;20277;-73
2022/06/06 05:12:28;;;;;;;7.37;4.80;;;16.60;99.90;;;;;;5014277;28;20166;-73
2022/06/06 05:15:18;;;;;;;6.33;4.63;;;16.60;99.90;;;;;;5013008;28;20257;-73
2022/06/06 05:18:02;;;;;;;5.07;4.57;;;16.60;99.90;;;;;;5012804;28;20571;-73
2022/06/06 05:20:48;;;;;;;4.87;4.37;;;16.50;99.90;;;;;;5012955;28;20178;-73
2022/06/06 05:23:40;;;;;;;6.50;4.40;;;16.50;99.90;;;;;;5012546;28;20676;-73
2022/06/06 05:26:19;;;;;;;5.23;4.47;;;16.60;99.90;;;;;;5013892;28;20185;-73
2022/06/06 05:29:10;;;;;;;5.33;4.30;;;16.70;99.90;;;;;;5012711;28;20201;-73
2022/06/06 05:32:05;;;;;;;5.23;4.27;;;16.70;99.90;;;;;;5012579;28;20204;-73
2022/06/06 05:34:56;;;;;;;5.70;4.13;;;16.70;99.90;;;;;;5012499;28;20175;-73
2022/06/06 05:37:24;;;;;;;5.53;3.97;;;16.70;99.90;;;;;;5012595;28;20195;-73
2022/06/06 05:40:02;;;;;;;7.53;4.43;;;16.70;99.90;;;;;;5012514;28;20283;-73
2022/06/06 05:42:43;;;;;;;5.27;4.63;;;16.70;99.90;;;;;;5013396;28;20253;-73
2022/06/06 05:45:36;;;;;;;5.70;4.50;;;16.70;99.90;;;;;;5011977;28;20265;-73
2022/06/06 05:48:09;;;;;;;5.23;4.50;;;16.70;99.90;;;;;;5013606;28;20203;-73
2022/06/06 05:50:35;;;;;;;5.37;4.03;;;16.70;99.90;;;;;;5012285;28;20194;-73
2022/06/06 05:53:57;;;;;;;4.63;4.03;;;16.70;99.90;;;;;;5012004;28;20258;-73
2022/06/06 05:56:51;;;;;;;4.40;4.00;;;16.80;99.90;;;;;;4991628;28;20217;-73
2022/06/06 05:59:25;;;;;;;4.90;4.30;;;16.90;99.90;;;;;;4975166;28;20186;-73
2022/06/06 06:02:27;;;;;;;4.73;4.10;;;16.90;99.90;;;;;;5000428;28;20194;-73
2022/06/06 06:05:30;;;;;;;5.53;4.20;;;17.00;99.90;;;;;;5012043;28;20205;-73
2022/06/06 06:08:33;;;;;;;5.53;4.03;;;17.00;99.90;;;;;;5011876;28;20297;-73
2022/06/06 06:11:11;;;;;;;7.03;4.27;;;17.10;99.90;;;;;;5012094;28;20719;-73
2022/06/06 06:14:01;;;;;;;5.83;3.73;;;17.20;99.90;;;;;;5011747;28;20341;-73
2022/06/06 06:16:32;;;;;;;7.03;4.47;;;17.30;99.90;;;;;;5013031;28;20204;-73
2022/06/06 06:19:11;;;;;;;5.93;4.10;;;17.20;99.90;;;;;;5011743;28;20282;-73
2022/06/06 06:21:46;;;;;;;5.10;3.97;;;17.20;99.90;;;;;;5013003;28;20673;-73
2022/06/06 06:24:17;;;;;;;5.00;3.80;;;17.30;99.90;;;;;;4995287;28;20206;-73
2022/06/06 06:26:44;;;;;;;5.70;3.50;;;17.30;99.90;;;;;;5011570;28;20210;-73
2022/06/06 06:29:10;;;;;;;5.80;3.67;;;17.30;99.90;;;;;;5011795;28;20660;-72
2022/06/06 06:31:42;;;;;;;4.20;3.80;;;17.40;99.90;;;;;;4995336;28;20265;-72
2022/06/06 06:34:37;;;;;;;5.83;4.00;;;17.50;99.90;;;;;;5012753;28;20202;-72
2022/06/06 06:37:08;;;;;;;5.73;4.10;;;17.60;99.90;;;;;;5011302;28;20195;-73
2022/06/06 06:39:48;;;;;;;5.67;3.87;;;17.80;99.90;;;;;;5012714;28;20545;-73
2022/06/06 06:42:38;;;;;;;5.63;3.70;;;17.90;99.90;;;;;;5011561;28;20181;-73
2022/06/06 06:45:24;;;;;;;3.67;3.37;;;18.00;99.90;;;;;;5011534;28;20207;-73
2022/06/06 06:47:53;;;;;;;5.57;3.47;;;18.00;99.90;;;;;;5011407;28;20711;-73
2022/06/06 06:50:29;;;;;;;4.67;3.83;;;18.10;99.90;;;;;;5011339;28;20198;-73
2022/06/06 06:53:16;;;;;;;4.43;3.80;;;18.10;99.90;;;;;;5011139;28;20174;-73
2022/06/06 06:56:20;;;;;;;6.70;4.00;;;18.10;99.90;;;;;;5011313;28;20241;-73
2022/06/06 06:59:10;;;;;;;5.70;4.20;;;18.20;99.90;;;;;;5011128;28;20210;-73
2022/06/06 07:11:09;;;;;;;7.43;4.30;;;17.90;99.90;;;;;;5012372;28;20202;-73
2022/06/06 07:13:56;;;;;;;4.97;4.40;;;17.90;99.90;;;;;;5011053;28;20174;-73
2022/06/06 07:16:31;;;;;;;5.87;4.40;;;17.90;99.90;;;;;;5011018;28;20182;-73
2022/06/06 07:19:19;;;;;;;4.40;4.00;;;17.90;99.90;;;;;;5011129;28;20245;-73
2022/06/06 07:21:46;;;;;;;5.43;4.13;;;18.00;99.90;;;;;;5010705;28;20179;-73
2022/06/06 07:24:16;;;;;;;5.90;3.87;;;18.20;99.90;;;;;;5010986;28;20171;-73
2022/06/06 07:26:44;;;;;;;5.07;3.63;;;18.30;99.90;;;;;;4994854;28;20260;-73
2022/06/06 07:29:13;;;;;;;5.13;3.90;;;18.20;99.90;;;;;;4994603;28;20175;-73
2022/06/06 07:31:57;;;;;;;4.97;4.13;;;18.10;99.90;;;;;;5010988;28;20175;-73
2022/06/06 07:34:44;;;;;;;4.40;3.83;;;18.00;99.90;;;;;;5010863;28;20206;-73
2022/06/06 07:37:17;;;;;;;4.90;4.00;;;18.00;99.90;;;;;;5010854;28;20736;-73
2022/06/06 07:40:03;;;;;;;5.07;3.90;;;18.00;99.90;;;;;;5010844;28;20186;-73
2022/06/06 07:42:51;;;;;;;4.97;4.33;;;18.10;99.90;;;;;;5010824;28;20237;-73
2022/06/06 07:45:34;;;;;;;4.10;3.70;;;18.10;99.90;;;;;;5012050;28;20171;-73
2022/06/06 07:48:18;;;;;;;4.57;3.80;;;18.30;99.90;;;;;;4995140;28;20305;-73
2022/06/06 07:51:07;;;;;;;4.33;3.73;;;18.50;99.90;;;;;;5010817;28;20534;-73
2022/06/06 07:53:53;;;;;;;4.13;3.73;;;18.60;99.90;;;;;;5005068;28;20183;-73
2022/06/06 07:56:45;;;;;;;4.30;3.77;;;18.60;99.90;;;;;;5010740;28;20171;-73
2022/06/06 07:59:19;;;;;;;5.07;3.83;;;18.70;99.90;;;;;;5010212;28;20175;-73
2022/06/06 08:02:03;;;;;;;3.67;3.27;;;18.60;99.90;;;;;;5011819;28;20643;-73
2022/06/06 08:05:13;;;;;;;4.33;3.93;;;18.50;99.90;;;;;;5010941;28;20159;-73
2022/06/06 08:07:59;;;;;;;5.60;3.83;;;18.30;99.90;;;;;;5055657;22;20687;-76
2022/06/06 08:10:37;;;;;;;3.30;3.00;;;18.50;99.90;;;;;;5033790;28;20225;-75
2022/06/06 08:13:19;;;;;;;4.33;3.53;;;18.50;99.90;;;;;;5033961;28;20177;-75
2022/06/06 08:16:18;;;;;;;4.80;3.77;;;18.60;99.90;;;;;;5033881;28;20176;-75
2022/06/06 08:19:05;;;;;;;4.23;3.50;;;18.80;99.90;;;;;;5034986;28;20654;-75
2022/06/06 08:21:43;;;;;;;4.20;3.40;;;18.70;99.90;;;;;;5035113;28;20641;-75
2022/06/06 08:24:42;;;;;;;4.67;3.40;;;18.60;99.90;;;;;;5017496;28;20205;-75
2022/06/06 08:27:13;;;;;;;3.50;3.20;;;18.50;99.90;;;;;;5028255;28;20289;-76
2022/06/06 08:29:41;;;;;;;4.30;3.40;;;18.50;99.90;;;;;;5033616;28;20174;-75
2022/06/06 08:32:07;;;;;;;4.47;3.70;;;18.50;99.90;;;;;;5000735;28;20199;-75
2022/06/06 08:34:33;;;;;;;6.30;3.73;;;18.50;99.90;;;;;;5033725;28;20178;-75
2022/06/06 08:37:24;;;;;;;4.27;3.70;;;18.40;99.90;;;;;;5033545;28;20179;-75
2022/06/06 08:40:10;;;;;;;5.17;3.70;;;18.30;99.90;;;;;;5033404;28;20171;-76
2022/06/06 08:43:00;;;;;;;3.87;3.50;;;18.30;99.90;;;;;;5033251;28;20212;-78
2022/06/06 08:45:40;;;;;;;3.70;3.30;;;18.10;99.90;;;;;;5034619;28;20547;-78
2022/06/06 08:48:56;;;;;;;3.60;3.30;;;17.90;99.90;;;;;;5033130;28;20688;-78
2022/06/06 08:51:40;;;;;;;3.30;3.00;;;17.80;99.90;;;;;;5033407;28;20174;-78
2022/06/06 08:54:20;;;;;;;3.30;3.00;;;17.80;99.90;;;;;;5033203;28;20171;-78
2022/06/06 08:57:06;;;;;;;2.97;2.77;;;18.00;99.90;;;;;;5033289;28;20312;-78
2022/06/06 09:00:02;;;;;;;2.87;2.57;;;18.20;99.90;;;;;;5033302;28;20181;-78
2022/06/06 09:02:58;;;;;;;4.03;2.77;;;18.20;99.90;;;;;;5033141;28;20224;-78
2022/06/06 09:05:45;;;;;;;3.27;2.90;;;18.10;99.90;;;;;;5033421;28;20242;-78
2022/06/06 09:08:29;;;;;;;3.33;2.60;;;18.20;99.90;;;;;;5033020;28;20309;-78
2022/06/06 09:11:19;;;;;;;3.20;2.80;;;18.20;99.90;;;;;;5034260;28;20409;-78
2022/06/06 09:14:18;;;;;;;3.10;2.80;;;18.20;99.90;;;;;;5032792;28;20167;-78
2022/06/06 09:17:21;;;;;;;3.50;2.77;;;18.10;99.90;;;;;;5032956;28;20175;-78
2022/06/06 09:20:21;;;;;;;3.40;2.73;;;18.10;99.90;;;;;;5032372;28;20265;-78
2022/06/06 09:23:06;;;;;;;3.00;2.70;;;18.20;99.90;;;;;;5032704;28;20175;-78
2022/06/06 09:25:47;;;;;;;2.50;2.30;;;18.20;99.90;;;;;;5032860;28;20206;-78
2022/06/06 09:28:31;;;;;;;2.57;2.30;;;18.20;99.90;;;;;;5032611;28;20300;-78
2022/06/06 09:31:28;;;;;;;4.60;2.53;;;18.10;99.90;;;;;;5032557;28;20253;-78
2022/06/06 09:34:06;;;;;;;3.20;2.43;;;18.00;99.90;;;;;;5032578;28;20167;-78
2022/06/06 09:36:46;;;;;;;3.60;2.63;;;18.00;99.90;;;;;;5032981;28;20265;-78
2022/06/06 09:39:33;;;;;;;3.20;2.80;;;17.90;99.90;;;;;;5032791;28;20194;-78
2022/06/06 09:42:15;;;;;;;3.20;2.83;;;17.80;99.90;;;;;;5033203;28;20178;-78
2022/06/06 09:44:59;;;;;;;3.30;3.00;;;17.80;99.90;;;;;;5033032;28;20206;-78
2022/06/06 09:47:58;;;;;;;5.33;3.70;;;17.80;99.90;;;;;;5032955;28;20256;-78
2022/06/06 09:50:27;;;;;;;4.33;3.60;;;17.70;99.90;;;;;;5033032;28;20167;-78
2022/06/06 09:53:14;;;;;;;6.80;3.90;;;17.70;99.90;;;;;;5032288;28;20174;-78
2022/06/06 09:59:03;;;;;;;4.47;3.80;;;17.50;99.90;;;;;;5033910;28;20221;-78
2022/06/06 10:01:54;;;;;;;4.27;3.30;;;17.40;99.90;;;;;;5033293;28;20265;-78
2022/06/06 10:05:06;;;;;;;4.63;3.70;;;17.50;99.90;;;;;;5033555;28;20320;-78
2022/06/06 10:08:04;;;;;;;5.00;3.90;;;17.50;99.90;;;;;;5032052;28;20240;-78
2022/06/06 10:10:42;;;;;;;5.10;3.93;;;17.50;99.90;;;;;;5031955;28;20170;-78
2022/06/06 10:13:53;;;;;;;4.40;4.00;;;17.70;99.90;;;;;;5031636;28;20181;-78
2022/06/06 10:16:27;;;;;;;4.73;4.23;;;17.90;99.90;;;;;;4991197;28;20265;-78
2022/06/06 10:19:05;;;;;;;5.40;4.33;;;17.90;99.90;;;;;;4991360;28;20200;-78
2022/06/06 10:21:50;;;;;;;5.57;4.40;;;18.00;99.90;;;;;;5008173;28;20186;-78
2022/06/06 10:24:36;;;;;;;5.00;4.23;;;18.10;99.90;;;;;;5032461;28;20678;-78
2022/06/06 10:27:08;;;;;;;4.97;4.47;;;18.10;99.90;;;;;;5031767;28;20201;-78
2022/06/06 10:32:53;;;;;;;5.97;4.57;;;17.90;99.90;;;;;;5032557;28;20166;-78
2022/06/06 10:35:29;;;;;;;6.27;4.80;;;18.00;99.90;;;;;;5022572;28;20206;-78
2022/06/06 10:37:59;;;;;;;5.90;4.73;;;18.10;99.90;;;;;;5032598;28;20247;-78
2022/06/06 10:40:37;;;;;;;5.10;4.63;;;18.20;99.90;;;;;;5031613;28;20206;-78
2022/06/06 10:43:11;;;;;;;5.37;4.87;;;18.10;99.90;;;;;;5031115;28;20636;-78
2022/06/06 10:45:46;;;;;;;5.27;4.70;;;18.00;99.90;;;;;;5032497;28;20232;-78
2022/06/06 10:48:15;;;;;;;5.17;4.67;;;18.10;99.90;;;;;;5032710;28;20212;-78
2022/06/06 10:54:21;;;;;;;4.90;4.40;;;18.30;99.90;;;;;;5032762;28;20182;-78
2022/06/06 10:57:22;;;;;;;5.80;4.50;;;18.30;99.90;;;;;;5031972;28;20208;-78
2022/06/06 11:00:22;;;;;;;4.57;4.10;;;18.50;99.90;;;;;;5016393;28;20183;-78
2022/06/06 11:03:12;;;;;;;6.37;4.77;;;18.40;99.90;;;;;;5031500;28;20178;-78
2022/06/06 11:05:46;;;;;;;5.20;4.70;;;18.30;99.90;;;;;;5031537;28;20186;-78
2022/06/06 11:08:27;;;;;;;5.00;4.50;;;18.10;99.90;;;;;;5032867;28;20244;-78
2022/06/06 11:11:27;;;;;;;5.83;5.03;;;18.10;99.90;;;;;;5031931;28;20201;-78
2022/06/06 11:14:35;;;;;;;5.60;5.00;;;18.10;99.90;;;;;;5032251;28;20206;-78
2022/06/06 11:17:38;;;;;;;5.23;4.73;;;18.10;99.90;;;;;;4974381;28;20203;-78
2022/06/06 11:20:25;;;;;;;4.33;3.90;;;18.20;99.90;;;;;;5030860;28;20174;-78
2022/06/06 11:23:09;;;;;;;5.33;4.83;;;18.20;99.90;;;;;;5030615;28;20703;-78
2022/06/06 11:25:53;;;;;;;4.83;4.33;;;18.20;99.90;;;;;;5030798;28;20197;-78
2022/06/06 11:28:31;;;;;;;4.57;4.17;;;18.20;99.90;;;;;;5030576;28;20202;-78
2022/06/06 11:31:08;;;;;;;4.80;4.17;;;18.30;99.90;;;;;;5031076;28;20184;-78
2022/06/06 11:33:49;;;;;;;5.17;4.30;;;18.30;99.90;;;;;;5030475;28;20178;-78
2022/06/06 11:36:33;;;;;;;4.47;4.07;;;18.30;99.90;;;;;;5030545;28;20182;-78
2022/06/06 11:39:13;;;;;;;4.37;3.97;;;18.30;99.90;;;;;;5031440;28;20183;-78
2022/06/06 11:42:06;;;;;;;3.30;3.00;;;18.50;99.90;;;;;;5030517;28;20185;-78
2022/06/06 11:44:55;;;;;;;2.90;2.60;;;18.90;99.90;;;;;;5032986;28;20197;-78
2022/06/06 11:47:24;;;;;;;3.30;2.97;;;19.20;99.90;;;;;;5035620;28;20174;-78
2022/06/06 11:50:07;;;;;;;2.67;2.47;;;19.60;99.90;;;;;;5035784;28;20174;-78
2022/06/06 11:53:12;;;;;;;3.00;2.70;;;20.20;99.90;;;;;;5034299;28;20178;-78
2022/06/06 11:55:44;;;;;;;3.80;3.23;;;20.30;99.90;;;;;;5034297;28;20233;-78
2022/06/06 11:58:41;;;;;;;3.33;2.90;;;20.00;99.90;;;;;;5034370;28;20210;-78
2022/06/06 12:01:25;;;;;;;3.20;2.67;;;20.10;99.90;;;;;;5034295;28;20174;-78
2022/06/06 12:04:10;;;;;;;3.13;2.83;;;20.10;99.90;;;;;;5033912;28;20171;-78
2022/06/06 12:06:51;;;;;;;3.72;2.78;;;20.40;99.90;;;;;;5013636;28;20217;-78
2022/06/06 12:09:39;;;;;;;3.30;2.97;;;20.60;99.90;;;;;;5033956;28;20210;-78
2022/06/06 12:12:37;;;;;;;4.80;3.35;;;21.00;99.90;;;;;;5035006;28;20253;-78
2022/06/06 12:15:27;;;;;;;3.40;3.10;;;20.90;99.90;;;;;;5034035;28;20206;-78
2022/06/06 12:18:01;;;;;;;3.40;2.75;;;20.80;99.90;;;;;;5035155;28;20203;-78
2022/06/06 12:21:10;;;;;;;4.30;2.90;;;21.20;99.90;;;;;;5033861;28;20533;-78
2022/06/06 12:23:44;;;;;;;3.95;2.60;;;21.20;99.90;;;;;;5033704;28;20232;-78
2022/06/06 12:26:22;;;;;;;2.65;2.40;;;21.40;99.90;;;;;;5033657;28;20184;-78
2022/06/06 12:29:23;;;;;;;2.50;2.30;;;21.60;99.90;;;;;;5033727;28;20747;-78
2022/06/06 12:31:58;;;;;;;2.58;2.22;;;21.90;99.90;;;;;;5011937;28;20577;-78
2022/06/06 12:34:57;;;;;;;2.40;2.20;;;22.20;99.90;;;;;;5035105;28;20173;-78
2022/06/06 12:37:47;;;;;;;2.38;1.88;;;22.30;99.90;;;;;;5022158;28;20230;-78
2022/06/06 12:40:34;;;;;;;2.10;1.95;;;22.30;99.90;;;;;;5033782;28;20617;-78
2022/06/06 12:43:24;;;;;;;2.33;2.10;;;22.50;99.90;;;;;;5034635;28;20167;-78
2022/06/06 12:46:24;;;;;;;1.90;1.80;;;22.50;99.90;;;;;;5033522;28;20178;-78
2022/06/06 12:48:57;;;;;;;2.10;1.90;;;22.40;99.90;;;;;;5033375;28;20186;-78
2022/06/06 12:51:39;;;;;;;2.20;2.00;;;22.50;99.90;;;;;;5033570;28;20659;-78
2022/06/06 12:54:44;;;;;;;2.20;2.00;;;22.60;99.90;;;;;;5033232;28;20255;-78
2022/06/06 12:57:16;;;;;;;3.15;2.30;;;22.10;99.90;;;;;;5018783;28;20236;-78
2022/06/06 12:59:57;;;;;;;2.80;2.00;;;22.10;99.90;;;;;;5016722;28;20179;-78
2022/06/06 13:02:53;;;;;;;2.20;2.00;;;22.40;99.90;;;;;;5033426;28;20657;-78
2022/06/06 13:05:29;;;;;;;2.17;1.98;;;22.60;99.90;;;;;;5033126;28;20632;-78
2022/06/06 13:08:15;;;;;;;2.08;1.90;;;22.50;99.90;;;;;;5033084;28;20209;-78
2022/06/06 13:10:50;;;;;;;2.35;2.15;;;22.30;99.90;;;;;;5033007;28;20181;-78
2022/06/06 13:13:40;;;;;;;2.40;2.20;;;22.50;99.90;;;;;;5032881;28;20675;-78
2022/06/06 13:16:18;;;;;;;2.60;2.10;;;22.30;99.90;;;;;;5033038;28;20627;-78
2022/06/06 13:19:07;;;;;;;2.40;2.20;;;22.20;99.90;;;;;;5032814;28;20285;-78
2022/06/06 13:21:40;;;;;;;4.68;2.20;;;22.30;99.90;;;;;;5032698;28;20174;-78
2022/06/06 13:24:28;;;;;;;1.98;1.88;;;22.60;99.90;;;;;;5032476;28;20583;-78
2022/06/06 13:26:55;;;;;;;3.22;2.08;;;22.90;99.90;;;;;;5032675;28;20178;-78
2022/06/06 13:29:29;;;;;;;2.20;2.00;;;22.80;99.90;;;;;;5016454;28;20199;-78
2022/06/06 13:32:13;;;;;;;2.10;1.90;;;23.10;99.90;;;;;;5032390;28;20174;-78
2022/06/06 13:34:45;;;;;;;2.72;1.70;;;23.20;99.90;;;;;;5032915;28;20236;-78
2022/06/06 13:37:54;;;;;;;2.65;1.83;;;23.20;99.90;;;;;;5031981;28;20186;-78
2022/06/06 13:40:28;;;;;;;2.10;1.80;;;23.10;99.90;;;;;;5032571;28;20197;-78
2022/06/06 13:43:26;;;;;;;3.42;1.90;;;22.60;99.90;;;;;;5032566;28;20170;-78
2022/06/06 13:46:03;;;;;;;2.10;1.90;;;22.60;99.90;;;;;;5032449;28;20220;-78
2022/06/06 13:48:36;;;;;;;2.10;1.80;;;22.40;99.90;;;;;;5032401;28;20281;-78
2022/06/06 13:51:21;;;;;;;1.80;1.70;;;22.70;99.90;;;;;;5032394;28;20554;-78
2022/06/06 13:54:21;;;;;;;1.80;1.70;;;22.80;99.90;;;;;;5032301;28;20178;-78
2022/06/06 13:57:05;;;;;;;3.45;1.80;;;22.50;99.90;;;;;;5033174;28;20240;-78
2022/06/06 13:59:52;;;;;;;1.60;1.50;;;22.30;99.90;;;;;;5032576;28;20192;-78
2022/06/06 14:02:34;;;;;;;1.92;1.70;;;22.40;99.90;;;;;;5031917;28;20174;-78
2022/06/06 14:05:25;;;;;;;2.25;1.85;;;22.90;99.90;;;;;;5032913;28;20270;-78
2022/06/06 14:08:10;;;;;;;2.15;1.80;;;23.50;99.90;;;;;;5039696;22;20218;-78
2022/06/06 14:10:54;;;;;;;1.88;1.65;;;23.80;99.90;;;;;;5032803;28;20182;-78
2022/06/06 14:13:50;;;;;;;1.65;1.55;;;23.80;99.90;;;;;;5033762;28;20225;-78
2022/06/06 14:16:34;;;;;;;1.75;1.52;;;23.80;99.90;;;;;;5032999;28;20174;-78
2022/06/06 14:19:11;;;;;;;2.05;1.60;;;24.10;99.90;;;;;;5032652;28;20206;-78
2022/06/06 14:21:46;;;;;;;1.80;1.52;;;24.10;99.90;;;;;;5033381;28;20174;-78
2022/06/06 14:24:16;;;;;;;1.67;1.50;;;24.10;99.90;;;;;;5033155;28;20174;-78
2022/06/06 14:26:48;;;;;;;3.25;1.80;;;23.80;99.90;;;;;;5015896;28;20174;-78
2022/06/06 14:29:23;;;;;;;2.63;1.63;;;23.10;99.90;;;;;;5033008;28;20198;-79
2022/06/06 14:31:55;;;;;;;1.60;1.50;;;23.10;99.90;;;;;;5033046;28;20180;-79